createdAt,value
2018-05-08T00:02:12.759Z,72.20
2018-05-08T00:04:40.280Z,72.10
2018-05-08T00:07:07.806Z,71.90
2018-05-08T00:09:35.318Z,71.90
2018-05-08T00:12:02.856Z,71.60
2018-05-08T00:14:30.604Z,72.20
2018-05-08T00:16:58.156Z,72.00
2018-05-08T00:19:25.661Z,71.90
2018-05-08T00:21:53.213Z,72.20
2018-05-08T00:24:20.736Z,72.40
2018-05-08T00:26:48.493Z,72.90
2018-05-08T00:29:16.807Z,72.80
2018-05-08T00:31:44.330Z,72.90
2018-05-08T00:34:11.851Z,72.60
2018-05-08T00:36:39.550Z,73.20
2018-05-08T00:39:07.810Z,73.20
2018-05-08T00:41:36.113Z,73.90
2018-05-08T00:44:03.639Z,73.90
2018-05-08T00:46:31.184Z,73.70
2018-05-08T00:48:58.784Z,73.90
2018-05-08T00:51:26.303Z,73.30
2018-05-08T00:53:53.908Z,74.30
2018-05-08T00:56:21.458Z,73.50
2018-05-08T00:58:49.772Z,74.50
2018-05-08T01:01:17.394Z,74.40
2018-05-08T01:03:45.699Z,74.50
2018-05-08T01:06:13.242Z,74.50
2018-05-08T01:08:40.918Z,74.50
2018-05-08T01:11:08.458Z,74.30
2018-05-08T01:13:35.981Z,74.90
2018-05-08T01:16:03.511Z,75.60
2018-05-08T01:18:31.125Z,74.80
2018-05-08T01:20:58.660Z,74.90
2018-05-08T01:23:26.200Z,75.00
2018-05-08T01:25:53.936Z,75.00
2018-05-08T01:28:21.462Z,75.10
2018-05-08T01:30:49.773Z,75.10
2018-05-08T01:33:17.302Z,75.10
2018-05-08T01:35:44.826Z,76.10
2018-05-08T01:38:12.344Z,76.20
2018-05-08T01:40:39.883Z,76.60
2018-05-08T01:43:07.428Z,76.70
2018-05-08T01:45:35.823Z,76.80
2018-05-08T01:48:03.379Z,76.80
2018-05-08T01:50:30.929Z,77.20
2018-05-08T01:52:58.486Z,77.80
2018-05-08T01:55:26.769Z,77.10
2018-05-08T01:57:55.058Z,77.30
2018-05-08T02:00:22.600Z,77.30
2018-05-08T02:02:50.123Z,77.30
2018-05-08T02:05:17.650Z,77.40
2018-05-08T02:07:45.185Z,76.90
2018-05-08T02:10:12.746Z,77.60
2018-05-08T02:12:40.294Z,77.60
2018-05-08T02:15:07.800Z,77.70
2018-05-08T02:17:35.334Z,78.40
2018-05-08T02:20:02.882Z,78.70
2018-05-08T02:22:30.560Z,79.30
2018-05-08T02:24:58.114Z,79.20
2018-05-08T02:27:25.650Z,80.30
2018-05-08T02:29:53.183Z,79.10
2018-05-08T02:32:20.772Z,79.60
2018-05-08T02:34:48.302Z,80.00
2018-05-08T02:37:15.817Z,79.70
2018-05-08T02:39:43.364Z,79.90
2018-05-08T02:42:10.881Z,79.80
2018-05-08T02:44:38.558Z,80.30
2018-05-08T02:47:06.838Z,81.40
2018-05-08T02:49:35.114Z,81.30
2018-05-08T02:52:03.582Z,81.40
2018-05-08T02:54:31.893Z,81.60
2018-05-08T02:56:59.420Z,81.50
2018-05-08T02:59:27.090Z,81.70
2018-05-08T03:01:54.602Z,82.00
2018-05-08T03:04:22.212Z,82.10
2018-05-08T03:06:49.786Z,82.10
2018-05-08T03:09:17.313Z,82.40
2018-05-08T03:11:44.850Z,82.50
2018-05-08T03:14:12.391Z,82.60
2018-05-08T03:16:39.928Z,82.90
2018-05-08T03:19:07.460Z,82.90
2018-05-08T03:21:35.737Z,82.80
2018-05-08T03:24:04.026Z,82.90
2018-05-08T03:26:31.537Z,82.90
2018-05-08T03:28:59.069Z,83.10
2018-05-08T03:31:26.611Z,83.20
2018-05-08T03:33:54.131Z,83.30
2018-05-08T03:36:21.670Z,83.60
2018-05-08T03:38:49.240Z,83.50
2018-05-08T03:41:16.722Z,83.70
2018-05-08T03:43:44.247Z,84.00
2018-05-08T03:46:11.845Z,83.90
2018-05-08T03:48:39.442Z,83.90
2018-05-08T03:51:06.957Z,83.80
2018-05-08T03:53:35.262Z,83.70
2018-05-08T03:56:02.782Z,83.70
2018-05-08T03:58:30.324Z,83.80
2018-05-08T04:01:09.693Z,83.90
2018-05-08T04:03:49.841Z,84.10
2018-05-08T04:06:49.779Z,84.20
2018-05-08T04:09:17.301Z,84.70
2018-05-08T04:11:44.829Z,84.80
2018-05-08T04:14:12.342Z,84.80
2018-05-08T04:16:39.880Z,85.00
2018-05-08T04:19:08.171Z,85.20
2018-05-08T04:21:36.550Z,85.40
2018-05-08T04:24:04.074Z,85.40
2018-05-08T04:26:31.638Z,85.30
2018-05-08T04:28:59.346Z,85.30
2018-05-08T04:31:26.862Z,85.40
2018-05-08T04:33:54.375Z,85.50
2018-05-08T04:36:22.019Z,85.40
2018-05-08T04:38:49.527Z,85.30
2018-05-08T04:41:17.047Z,85.10
2018-05-08T04:43:44.603Z,84.90
2018-05-08T04:46:12.113Z,85.20
2018-05-08T04:48:39.628Z,85.20
2018-05-08T04:51:07.140Z,85.20
2018-05-08T04:53:35.427Z,85.90
2018-05-08T04:56:03.850Z,85.40
2018-05-08T04:58:31.432Z,85.40
2018-05-08T05:00:58.962Z,85.50
2018-05-08T05:03:26.598Z,85.10
2018-05-08T05:05:54.111Z,85.10
2018-05-08T05:08:21.627Z,85.20
2018-05-08T05:10:49.155Z,84.80
2018-05-08T05:13:16.664Z,84.70
2018-05-08T05:15:44.190Z,84.40
2018-05-08T05:18:11.732Z,84.80
2018-05-08T05:20:39.324Z,84.70
2018-05-08T05:23:06.867Z,84.40
2018-05-08T05:25:34.594Z,85.00
2018-05-08T05:28:02.116Z,84.70
2018-05-08T05:30:29.725Z,84.60
2018-05-08T05:32:58.008Z,84.70
2018-05-08T05:35:25.534Z,84.60
2018-05-08T05:37:53.058Z,84.70
2018-05-08T05:40:20.760Z,84.10
2018-05-08T05:42:48.279Z,84.50
2018-05-08T05:45:15.799Z,84.90
2018-05-08T05:47:43.354Z,84.10
2018-05-08T05:50:11.643Z,84.70
2018-05-08T05:52:40.061Z,85.00
2018-05-08T05:55:07.575Z,84.90
2018-05-08T05:57:35.853Z,85.30
2018-05-08T06:00:04.217Z,85.30
2018-05-08T06:02:31.768Z,85.30
2018-05-08T06:04:59.293Z,85.00
2018-05-08T06:07:26.820Z,84.90
2018-05-08T06:09:54.344Z,85.30
2018-05-08T06:12:21.868Z,85.50
2018-05-08T06:14:49.416Z,85.30
2018-05-08T06:17:17.139Z,84.70
2018-05-08T06:19:44.628Z,85.60
2018-05-08T06:22:12.161Z,85.70
2018-05-08T06:24:39.696Z,84.70
2018-05-08T06:27:07.224Z,85.40
2018-05-08T06:29:34.930Z,85.40
2018-05-08T06:32:03.222Z,84.50
2018-05-08T06:34:31.604Z,84.30
2018-05-08T06:36:59.142Z,84.30
2018-05-08T06:39:26.750Z,84.60
2018-05-08T06:41:54.214Z,84.30
2018-05-08T06:44:21.999Z,84.30
2018-05-08T06:46:49.462Z,83.60
2018-05-08T06:49:16.986Z,82.50
2018-05-08T06:51:44.504Z,83.60
2018-05-08T06:54:12.060Z,83.10
2018-05-08T06:56:40.368Z,82.10
2018-05-08T06:59:07.894Z,82.00
2018-05-08T07:01:35.455Z,82.30
2018-05-08T07:04:03.782Z,82.30
2018-05-08T07:06:32.094Z,80.40
2018-05-08T07:08:59.789Z,80.40
2018-05-08T07:11:27.292Z,80.10
2018-05-08T07:13:54.828Z,79.50
2018-05-08T07:16:22.346Z,79.80
2018-05-08T07:18:49.869Z,79.90
2018-05-08T07:21:17.384Z,78.70
2018-05-08T07:23:44.956Z,79.60
2018-05-08T07:26:12.478Z,78.10
2018-05-08T07:28:40.780Z,77.10
2018-05-08T07:31:08.440Z,77.10
2018-05-08T07:33:36.743Z,77.90
2018-05-08T07:36:04.270Z,78.00
2018-05-08T07:38:31.794Z,78.30
2018-05-08T07:40:59.320Z,78.40
2018-05-08T07:43:26.842Z,77.80
2018-05-08T07:45:54.571Z,77.90
2018-05-08T07:48:22.076Z,75.70
2018-05-08T07:50:49.586Z,75.30
2018-05-08T07:53:17.105Z,76.30
2018-05-08T07:55:44.730Z,76.30
2018-05-08T07:58:12.250Z,73.40
2018-05-08T08:00:39.768Z,74.00
2018-05-08T08:03:07.295Z,73.90
2018-05-08T08:05:34.856Z,73.90
2018-05-08T08:08:03.125Z,72.80
2018-05-08T08:10:31.430Z,74.10
2018-05-08T08:12:58.973Z,73.90
2018-05-08T08:15:26.512Z,73.00
2018-05-08T08:17:54.149Z,71.40
2018-05-08T08:20:21.673Z,72.70
2018-05-08T08:22:49.196Z,72.00
2018-05-08T08:25:16.857Z,74.50
2018-05-08T08:27:44.422Z,75.70
2018-05-08T08:30:12.819Z,73.60
2018-05-08T08:32:40.542Z,73.60
2018-05-08T08:35:08.090Z,73.40
2018-05-08T08:37:35.595Z,72.10
2018-05-08T08:40:03.112Z,70.80
2018-05-08T08:42:30.638Z,69.50
2018-05-08T08:44:58.163Z,66.50
2018-05-08T08:47:25.690Z,65.50
2018-05-08T08:49:53.221Z,64.60
2018-05-08T08:52:20.749Z,66.60
2018-05-08T08:54:48.274Z,66.20
2018-05-08T08:57:15.779Z,64.70
2018-05-08T08:59:43.311Z,65.10
2018-05-08T09:02:10.883Z,65.50
2018-05-08T09:04:38.499Z,63.90
2018-05-08T09:07:06.023Z,64.90
2018-05-08T09:09:33.540Z,63.60
2018-05-08T09:12:01.049Z,62.30
2018-05-08T09:14:28.578Z,62.10
2018-05-08T09:16:56.087Z,61.80
2018-05-08T09:19:23.625Z,60.60
2018-05-08T09:21:51.143Z,61.00
2018-05-08T09:24:18.755Z,62.20
2018-05-08T09:26:46.271Z,61.90
2018-05-08T09:29:13.785Z,63.60
2018-05-08T09:31:41.437Z,63.20
2018-05-08T09:34:08.940Z,62.60
2018-05-08T09:36:36.537Z,60.60
2018-05-08T09:39:05.079Z,63.00
2018-05-08T09:41:32.605Z,63.60
2018-05-08T09:44:00.109Z,62.70
2018-05-08T09:46:27.664Z,61.20
2018-05-08T09:48:55.292Z,61.20
2018-05-08T09:51:22.739Z,59.30
2018-05-08T09:53:50.267Z,60.60
2018-05-08T09:56:17.823Z,58.70
2018-05-08T09:58:45.477Z,60.40
2018-05-08T10:01:13.001Z,60.40
2018-05-08T10:03:40.552Z,59.30
2018-05-08T10:06:08.105Z,57.70
2018-05-08T10:08:35.627Z,58.10
2018-05-08T10:11:03.154Z,57.00
2018-05-08T10:13:30.721Z,58.30
2018-05-08T10:15:58.245Z,58.70
2018-05-08T10:18:26.533Z,56.60
2018-05-08T10:20:54.937Z,55.70
2018-05-08T10:23:22.459Z,55.60
2018-05-08T10:25:50.873Z,55.90
2018-05-08T10:28:18.608Z,55.90
2018-05-08T10:30:46.139Z,55.20
2018-05-08T10:33:13.668Z,56.10
2018-05-08T10:35:41.173Z,56.60
2018-05-08T10:38:09.506Z,53.30
2018-05-08T10:40:37.016Z,52.80
2018-05-08T10:43:04.558Z,55.60
2018-05-08T10:45:32.842Z,54.20
2018-05-08T10:48:01.169Z,53.40
2018-05-08T10:50:28.906Z,53.40
2018-05-08T10:52:56.423Z,51.90
2018-05-08T10:55:24.048Z,50.90
2018-05-08T10:57:51.571Z,50.70
2018-05-08T11:00:19.867Z,51.80
2018-05-08T11:02:47.407Z,51.80
2018-05-08T11:05:14.937Z,49.90
2018-05-08T11:07:42.448Z,52.00
2018-05-08T11:10:10.007Z,48.30
2018-05-08T11:12:37.522Z,48.60
2018-05-08T11:15:05.811Z,48.00
2018-05-08T11:17:34.135Z,47.10
2018-05-08T11:20:01.653Z,47.10
2018-05-08T11:22:29.186Z,47.80
2018-05-08T11:24:57.466Z,49.00
2018-05-08T11:27:24.985Z,49.00
2018-05-08T11:29:52.503Z,49.60
2018-05-08T11:32:20.032Z,48.70
2018-05-08T11:34:48.315Z,48.00
2018-05-08T11:37:15.867Z,48.00
2018-05-08T11:39:43.418Z,47.60
2018-05-08T11:42:11.069Z,47.80
2018-05-08T11:44:38.662Z,50.00
2018-05-08T11:47:06.135Z,50.00
2018-05-08T11:49:33.803Z,49.00
2018-05-08T11:52:01.490Z,49.70
2018-05-08T11:54:29.087Z,49.90
2018-05-08T11:56:56.603Z,48.40
2018-05-08T11:59:24.111Z,47.10
2018-05-08T12:01:51.661Z,45.40
2018-05-08T12:04:19.182Z,46.20
2018-05-08T12:06:46.703Z,47.40
2018-05-08T12:09:15.126Z,44.80
2018-05-08T12:11:42.585Z,44.80
2018-05-08T12:14:10.121Z,44.80
2018-05-08T12:16:37.651Z,44.50
2018-05-08T12:19:05.184Z,46.30
2018-05-08T12:21:33.449Z,42.50
2018-05-08T12:24:01.088Z,42.50
2018-05-08T12:26:28.733Z,44.70
2018-05-08T12:28:56.251Z,43.90
2018-05-08T12:31:23.777Z,42.90
2018-05-08T12:33:51.398Z,44.70
2018-05-08T12:36:19.076Z,44.20
2018-05-08T12:38:46.536Z,44.80
2018-05-08T12:41:14.299Z,43.20
2018-05-08T12:43:41.838Z,40.60
2018-05-08T12:46:09.368Z,42.80
2018-05-08T12:48:36.887Z,40.40
2018-05-08T12:51:04.617Z,42.20
2018-05-08T12:53:32.895Z,41.40
2018-05-08T12:56:00.568Z,41.40
2018-05-08T12:58:28.089Z,41.30
2018-05-08T13:00:55.643Z,40.40
2018-05-08T13:03:23.155Z,38.40
2018-05-08T13:05:50.683Z,39.10
2018-05-08T13:08:18.250Z,37.50
2018-05-08T13:10:45.774Z,37.80
2018-05-08T13:13:14.083Z,38.10
2018-05-08T13:15:41.611Z,38.10
2018-05-08T13:18:09.208Z,36.00
2018-05-08T13:20:36.735Z,35.30
2018-05-08T13:23:05.013Z,33.20
2018-05-08T13:25:33.292Z,34.40
2018-05-08T13:28:01.579Z,34.70
2018-05-08T13:30:29.877Z,36.40
2018-05-08T13:32:57.396Z,36.40
2018-05-08T13:35:25.061Z,36.30
2018-05-08T13:37:52.635Z,34.10
2018-05-08T13:40:21.043Z,32.50
2018-05-08T13:42:48.563Z,32.50
2018-05-08T13:45:16.863Z,32.70
2018-05-08T13:47:44.405Z,32.70
2018-05-08T13:50:11.961Z,33.90
2018-05-08T13:52:39.497Z,31.50
2018-05-08T13:55:07.129Z,29.90
2018-05-08T13:57:34.675Z,32.50
2018-05-08T14:00:02.201Z,31.10
2018-05-08T14:02:30.484Z,30.70
2018-05-08T14:04:58.007Z,30.60
2018-05-08T14:07:25.551Z,29.80
2018-05-08T14:09:53.087Z,30.20
2018-05-08T14:12:20.613Z,30.30
2018-05-08T14:14:48.134Z,29.80
2018-05-08T14:17:15.759Z,30.00
2018-05-08T14:19:43.281Z,28.60
2018-05-08T14:22:11.565Z,29.10
2018-05-08T14:24:39.854Z,27.80
2018-05-08T14:27:07.369Z,27.80
2018-05-08T14:29:34.897Z,28.40
2018-05-08T14:32:02.432Z,28.70
2018-05-08T14:34:30.003Z,28.70
2018-05-08T14:36:57.589Z,30.10
2018-05-08T14:39:25.071Z,28.10
2018-05-08T14:41:52.616Z,27.50
2018-05-08T14:44:20.134Z,28.00
2018-05-08T14:46:47.701Z,29.10
2018-05-08T14:49:15.276Z,28.70
2018-05-08T14:51:42.765Z,27.00
2018-05-08T14:54:10.297Z,28.60
2018-05-08T14:56:37.917Z,27.70
2018-05-08T14:59:05.457Z,27.50
2018-05-08T15:01:33.865Z,27.00
2018-05-08T15:04:01.573Z,27.00
2018-05-08T15:06:29.099Z,27.80
2018-05-08T15:08:56.655Z,28.90
2018-05-08T15:11:24.187Z,27.60
2018-05-08T15:13:51.807Z,27.90
2018-05-08T15:16:19.494Z,28.00
2018-05-08T15:18:47.777Z,28.20
2018-05-08T15:21:16.059Z,28.10
2018-05-08T15:23:43.592Z,28.10
2018-05-08T15:26:11.127Z,27.30
2018-05-08T15:28:38.649Z,26.80
2018-05-08T15:31:06.179Z,27.40
2018-05-08T15:33:33.762Z,27.20
2018-05-08T15:36:01.295Z,28.00
2018-05-08T15:38:28.801Z,27.70
2018-05-08T15:40:56.332Z,27.20
2018-05-08T15:43:23.861Z,27.30
2018-05-08T15:45:51.400Z,27.70
2018-05-08T15:48:19.024Z,27.30
2018-05-08T15:50:46.541Z,27.50
2018-05-08T15:53:15.159Z,26.50
2018-05-08T15:55:42.686Z,26.50
2018-05-08T15:58:11.104Z,26.50
2018-05-08T16:00:38.616Z,26.50
2018-05-08T16:03:06.150Z,27.50
2018-05-08T16:05:33.694Z,27.20
2018-05-08T16:08:01.231Z,27.50
2018-05-08T16:10:28.742Z,28.20
2018-05-08T16:12:56.269Z,28.10
2018-05-08T16:15:24.008Z,26.20
2018-05-08T16:17:51.534Z,26.50
2018-05-08T16:20:19.082Z,27.60
2018-05-08T16:22:47.640Z,27.00
2018-05-08T16:25:15.076Z,26.90
2018-05-08T16:27:42.602Z,27.20
2018-05-08T16:30:10.150Z,28.10
2018-05-08T16:32:38.441Z,28.70
2018-05-08T16:35:06.739Z,29.70
2018-05-08T16:37:35.168Z,29.90
2018-05-08T16:40:02.701Z,29.90
2018-05-08T16:42:30.213Z,29.30
2018-05-08T16:44:57.896Z,28.70
2018-05-08T16:47:25.451Z,28.70
2018-05-08T16:49:52.981Z,29.30
2018-05-08T16:52:21.269Z,29.60
2018-05-08T16:54:48.805Z,29.60
2018-05-08T16:57:17.105Z,29.60
2018-05-08T16:59:44.636Z,29.60
2018-05-08T17:02:12.245Z,30.00
2018-05-08T17:04:39.810Z,30.10
2018-05-08T17:07:07.331Z,29.80
2018-05-08T17:09:34.917Z,30.00
2018-05-08T17:12:02.543Z,30.50
2018-05-08T17:14:31.210Z,30.40
2018-05-08T17:16:58.721Z,30.40
2018-05-08T17:19:26.256Z,31.70
2018-05-08T17:21:53.779Z,32.00
2018-05-08T17:24:21.295Z,32.10
2018-05-08T17:26:48.866Z,31.80
2018-05-08T17:29:16.409Z,31.90
2018-05-08T17:31:43.981Z,31.50
2018-05-08T17:34:11.515Z,32.20
2018-05-08T17:36:39.047Z,32.50
2018-05-08T17:39:06.570Z,33.30
2018-05-08T17:41:34.109Z,33.10
2018-05-08T17:44:01.643Z,32.80
2018-05-08T17:46:29.173Z,33.30
2018-05-08T17:48:56.712Z,33.80
2018-05-08T17:51:24.252Z,34.00
2018-05-08T17:53:51.792Z,34.10
2018-05-08T17:56:19.319Z,34.30
2018-05-08T17:58:46.857Z,34.40
2018-05-08T18:01:15.151Z,35.80
2018-05-08T18:03:42.659Z,35.80
2018-05-08T18:06:10.201Z,35.50
2018-05-08T18:08:37.747Z,34.50
2018-05-08T18:11:05.259Z,35.80
2018-05-08T18:13:32.781Z,35.30
2018-05-08T18:16:00.311Z,36.20
2018-05-08T18:18:28.586Z,36.90
2018-05-08T18:20:56.869Z,37.50
2018-05-08T18:23:25.159Z,38.30
2018-05-08T18:25:52.675Z,38.30
2018-05-08T18:28:20.205Z,38.40
2018-05-08T18:30:47.847Z,38.70
2018-05-08T18:33:15.386Z,38.70
2018-05-08T18:35:42.972Z,38.80
2018-05-08T18:38:10.510Z,38.90
2018-05-08T18:40:38.039Z,39.90
2018-05-08T18:43:05.561Z,40.60
2018-05-08T18:45:33.080Z,40.90
2018-05-08T18:48:00.672Z,41.10
2018-05-08T18:50:28.410Z,41.60
2018-05-08T18:52:56.083Z,42.40
2018-05-08T18:55:23.609Z,42.80
2018-05-08T18:57:51.120Z,43.50
2018-05-08T19:00:21.498Z,44.10
2018-05-08T19:02:49.813Z,44.70
2018-05-08T19:05:17.404Z,44.70
2018-05-08T19:07:45.714Z,45.70
2018-05-08T19:10:13.268Z,45.70
2018-05-08T19:12:40.806Z,45.80
2018-05-08T19:15:14.094Z,46.20
2018-05-08T19:17:41.618Z,46.40
2018-05-08T19:20:09.149Z,46.50
2018-05-08T19:22:36.708Z,46.90
2018-05-08T19:25:04.227Z,47.30
2018-05-08T19:27:31.768Z,47.50
2018-05-08T19:30:05.009Z,47.70
2018-05-08T19:32:32.680Z,47.80
2018-05-08T19:35:05.916Z,47.90
2018-05-08T19:37:39.087Z,48.10
2018-05-08T19:40:06.675Z,48.40
2018-05-08T19:42:34.215Z,48.50
2018-05-08T19:45:01.766Z,48.90
2018-05-08T19:47:29.453Z,49.10
2018-05-08T19:49:56.994Z,48.80
2018-05-08T19:52:24.587Z,49.10
2018-05-08T19:54:52.113Z,49.30
2018-05-08T19:57:19.644Z,49.30
2018-05-08T19:59:47.175Z,49.70
2018-05-08T20:02:14.755Z,49.90
2018-05-08T20:04:42.295Z,49.80
2018-05-08T20:07:09.823Z,50.10
2018-05-08T20:09:37.361Z,50.50
2018-05-08T20:12:05.705Z,50.10
2018-05-08T20:14:33.220Z,50.30
2018-05-08T20:17:00.745Z,50.50
2018-05-08T20:19:28.276Z,50.50
2018-05-08T20:21:55.797Z,50.80
2018-05-08T20:24:23.318Z,51.00
2018-05-08T20:26:50.953Z,51.20
2018-05-08T20:29:19.252Z,51.50
2018-05-08T20:31:46.775Z,51.50
2018-05-08T20:34:14.325Z,51.60
2018-05-08T20:36:42.632Z,51.80
2018-05-08T20:39:11.028Z,52.20
2018-05-08T20:41:38.684Z,52.10
2018-05-08T20:44:06.270Z,52.30
2018-05-08T20:46:33.775Z,52.40
2018-05-08T20:49:01.467Z,52.40
2018-05-08T20:51:29.001Z,52.70
2018-05-08T20:53:57.279Z,53.30
2018-05-08T20:56:25.576Z,53.40
2018-05-08T20:58:53.109Z,53.40
2018-05-08T21:01:20.832Z,53.10
2018-05-08T21:03:48.969Z,53.40
2018-05-08T21:06:16.581Z,53.40
2018-05-08T21:08:44.877Z,53.40
2018-05-08T21:11:13.207Z,53.80
2018-05-08T21:13:40.723Z,53.80
2018-05-08T21:16:08.252Z,54.00
2018-05-08T21:18:35.771Z,53.70
2018-05-08T21:21:04.063Z,54.40
2018-05-08T21:23:31.657Z,54.30
2018-05-08T21:25:59.965Z,54.50
2018-05-08T21:28:33.227Z,54.40
2018-05-08T21:31:06.485Z,54.10
2018-05-08T21:33:33.999Z,54.60
2018-05-08T21:36:01.521Z,54.70
2018-05-08T21:38:29.041Z,54.40
2018-05-08T21:40:56.568Z,54.50
2018-05-08T21:43:24.098Z,55.10
2018-05-08T21:45:51.619Z,54.90
2018-05-08T21:48:19.134Z,54.60
2018-05-08T21:50:47.418Z,54.80
2018-05-08T21:53:14.950Z,54.80
2018-05-08T21:55:42.505Z,55.00
2018-05-08T21:58:10.030Z,55.00
2018-05-08T22:00:37.554Z,54.80
2018-05-08T22:03:05.082Z,55.30
2018-05-08T22:05:32.645Z,55.60
2018-05-08T22:08:00.158Z,55.30
2018-05-08T22:10:27.688Z,55.40
2018-05-08T22:12:55.222Z,55.70
2018-05-08T22:15:22.922Z,55.70
2018-05-08T22:17:50.583Z,55.90
2018-05-08T22:20:18.196Z,55.90
2018-05-08T22:22:46.611Z,56.70
2018-05-08T22:25:14.867Z,56.80
2018-05-08T22:27:43.260Z,56.80
2018-05-08T22:30:10.789Z,56.80
2018-05-08T22:32:38.313Z,57.30
2018-05-08T22:35:06.061Z,57.60
2018-05-08T22:37:33.577Z,57.20
2018-05-08T22:40:01.885Z,57.80
2018-05-08T22:42:29.420Z,57.80
2018-05-08T22:44:56.947Z,57.40
2018-05-08T22:47:24.514Z,57.80
2018-05-08T22:49:52.019Z,58.30
2018-05-08T22:52:19.551Z,58.70
2018-05-08T22:54:47.829Z,58.30
2018-05-08T22:57:16.117Z,58.50
2018-05-08T22:59:43.667Z,58.50
2018-05-08T23:02:11.199Z,58.70
2018-05-08T23:04:38.723Z,59.00
2018-05-08T23:07:06.244Z,59.00
2018-05-08T23:09:33.767Z,59.00
2018-05-08T23:12:01.290Z,59.40
2018-05-08T23:14:28.820Z,59.60
2018-05-08T23:16:56.386Z,60.00
2018-05-08T23:19:23.906Z,59.70
2018-05-08T23:21:53.077Z,60.60
2018-05-08T23:24:20.614Z,60.50
2018-05-08T23:26:48.152Z,60.30
2018-05-08T23:29:15.682Z,61.80
2018-05-08T23:31:43.986Z,62.70
2018-05-08T23:34:12.262Z,62.60
2018-05-08T23:36:39.809Z,62.60
2018-05-08T23:39:07.474Z,62.80
2018-05-08T23:41:35.031Z,62.40
2018-05-08T23:44:03.306Z,62.90
2018-05-08T23:46:31.588Z,63.70
2018-05-08T23:48:59.870Z,63.60
2018-05-08T23:51:28.138Z,63.60
2018-05-08T23:53:56.623Z,64.20
2018-05-08T23:56:25.035Z,63.70
2018-05-08T23:58:52.558Z,63.70
